Time;durP1;ratioP1;P1;durP2;ratioP2;P2;SDS_P1;SDS_P2;PMS_P1;PMS_P2;Temp;Humidity;BMP_temperature;BMP_pressure;BME280_temperature;BME280_humidity;BME280_pressure;Samples;Min_cycle;Max_cycle;Signal;HPM_P1;HPM_P2
2022/09/24 00:00:38;;;;;;;8.38;6.40;;;;;;;10.14;100.00;100700.50;5042985;28;20303;-78
2022/09/24 00:03:03;;;;;;;12.80;8.63;;;;;;;10.10;100.00;100702.63;5019715;28;20033;-79
2022/09/24 00:05:28;;;;;;;15.37;8.23;;;;;;;10.08;100.00;100690.47;5028355;28;20127;-79
2022/09/24 00:07:54;;;;;;;13.57;7.80;;;;;;;10.12;100.00;100691.81;5025483;28;20037;-79
2022/09/24 00:10:19;;;;;;;9.23;8.20;;;;;;;10.13;100.00;100698.81;5029644;28;20372;-81
2022/09/24 00:12:45;;;;;;;11.00;8.18;;;;;;;10.09;100.00;100686.78;5014658;28;20561;-80
2022/09/24 00:15:10;;;;;;;9.77;8.27;;;;;;;10.03;100.00;100680.28;5023196;28;20024;-79
2022/09/24 00:17:36;;;;;;;12.70;8.70;;;;;;;10.03;100.00;100679.44;5012188;28;20409;-79
2022/09/24 00:20:01;;;;;;;16.73;10.45;;;;;;;10.02;100.00;100675.94;5011163;28;20140;-80
2022/09/24 00:22:27;;;;;;;13.85;10.20;;;;;;;9.96;100.00;100681.91;5028297;28;20563;-79
2022/09/24 00:27:36;;;;;;;13.32;9.70;;;;;;;9.95;100.00;100682.91;5035419;28;20050;-79
2022/09/24 00:30:02;;;;;;;13.73;9.57;;;;;;;9.94;100.00;100678.56;5024607;28;20050;-80
2022/09/24 00:32:27;;;;;;;12.98;8.95;;;;;;;9.87;100.00;100672.19;5011698;28;20079;-77
2022/09/24 00:34:53;;;;;;;11.43;8.20;;;;;;;9.85;100.00;100663.53;5020086;28;20437;-79
2022/09/24 00:37:19;;;;;;;10.38;8.65;;;;;;;9.90;100.00;100677.19;5023910;28;20081;-79
2022/09/24 00:39:45;;;;;;;10.23;7.83;;;;;;;9.89;100.00;100668.38;5010837;28;20026;-79
2022/09/24 00:42:12;;;;;;;13.98;9.75;;;;;;;9.89;100.00;100675.53;4996589;28;20049;-79
2022/09/24 00:44:47;;;;;;;11.57;8.90;;;;;;;9.88;100.00;100671.19;5008673;28;20029;-80
2022/09/24 00:47:33;;;;;;;13.52;8.50;;;;;;;9.84;100.00;100664.53;5008566;28;20578;-79
2022/09/24 00:50:12;;;;;;;11.48;8.75;;;;;;;9.83;100.00;100663.69;5005904;28;20033;-79
2022/09/24 00:52:43;;;;;;;12.45;8.75;;;;;;;9.84;100.00;100662.69;5025269;28;20033;-78
2022/09/24 00:55:10;;;;;;;11.40;8.57;;;;;;;9.83;100.00;100658.38;5019367;28;20036;-78
2022/09/24 00:57:39;;;;;;;10.45;8.07;;;;;;;9.82;100.00;100659.34;5026409;28;20554;-80
2022/09/24 01:00:06;;;;;;;12.05;8.27;;;;;;;9.83;100.00;100655.69;5019666;28;20039;-79
2022/09/24 01:02:34;;;;;;;10.00;8.07;;;;;;;9.77;100.00;100650.16;5021103;28;20026;-80
2022/09/24 01:05:00;;;;;;;9.88;8.20;;;;;;;9.78;100.00;100657.97;5007155;28;20036;-80
2022/09/24 01:07:25;;;;;;;12.77;9.18;;;;;;;9.73;100.00;100650.47;5018560;28;20382;-80
2022/09/24 01:09:51;;;;;;;10.40;8.47;;;;;;;9.77;100.00;100652.84;5020797;28;20068;-79
2022/09/24 01:12:32;;;;;;;10.88;8.77;;;;;;;9.79;100.00;100653.50;5017440;28;20025;-80
2022/09/24 01:15:19;;;;;;;14.60;8.50;;;;;;;9.79;100.00;100656.19;5022082;28;20657;-79
2022/09/24 01:18:00;;;;;;;11.23;8.55;;;;;;;9.79;100.00;100653.50;5034455;28;20021;-80
2022/09/24 01:20:28;;;;;;;12.20;9.27;;;;;;;9.73;100.00;100653.13;4991050;28;20033;-79
2022/09/24 01:23:12;;;;;;;13.57;9.30;;;;;;;9.76;100.00;100638.63;5009602;28;20025;-79
2022/09/24 01:26:02;;;;;;;10.68;9.18;;;;;;;9.79;100.00;100648.19;5029749;28;20030;-78
2022/09/24 01:29:04;;;;;;;11.00;9.13;;;;;;;9.79;100.00;100658.84;5020507;28;20497;-80
2022/09/24 01:31:37;;;;;;;10.50;8.98;;;;;;;9.77;100.00;100653.66;5003437;28;20029;-79
2022/09/24 01:34:04;;;;;;;13.38;8.90;;;;;;;9.79;100.00;100661.50;5006542;28;20875;-80
2022/09/24 01:36:35;;;;;;;13.90;9.15;;;;;;;9.73;100.00;100653.13;5020241;28;20113;-80
2022/09/24 01:39:02;;;;;;;11.30;8.43;;;;;;;9.76;100.00;100648.47;5025176;28;20117;-80
2022/09/24 01:41:28;;;;;;;11.52;9.02;;;;;;;9.78;100.00;100647.31;5018113;28;20127;-79
2022/09/24 01:43:53;;;;;;;13.25;9.80;;;;;;;9.81;100.00;100654.16;5020244;28;20036;-80
2022/09/24 01:46:21;;;;;;;10.70;9.60;;;;;;;9.88;100.00;100647.19;5020840;28;20034;-81
2022/09/24 01:48:47;;;;;;;10.57;9.20;;;;;;;9.84;100.00;100633.34;4991662;28;20029;-80
2022/09/24 01:51:16;;;;;;;;;;;;;;;9.92;100.00;100645.88;5007304;28;20457;-80
2022/09/24 01:53:47;;;;;;;14.07;8.88;;;;;;;9.92;100.00;100648.53;5024743;28;19975;-81
2022/09/24 01:56:21;;;;;;;13.00;10.68;;;;;;;9.90;100.00;100646.06;5017622;28;20028;-79
2022/09/24 01:58:58;;;;;;;14.98;9.50;;;;;;;9.90;100.00;100646.06;5019362;28;20025;-79
2022/09/24 02:01:32;;;;;;;14.15;10.80;;;;;;;9.88;100.00;100633.84;5001778;28;20515;-81
2022/09/24 02:04:05;;;;;;;13.75;10.07;;;;;;;9.91;100.00;100630.88;5022997;28;20431;-78
2022/09/24 02:07:02;;;;;;;12.07;10.10;;;;;;;9.93;100.00;100637.72;5020870;28;20041;-79
2022/09/24 02:09:37;;;;;;;12.93;9.73;;;;;;;9.88;100.00;100640.06;5004987;28;20051;-79
2022/09/24 02:12:13;;;;;;;13.55;10.48;;;;;;;9.90;100.00;100639.88;5020043;28;20032;-79
2022/09/24 02:14:46;;;;;;;14.07;11.35;;;;;;;9.91;100.00;100638.88;5039903;28;20029;-81
2022/09/24 02:17:13;;;;;;;15.10;10.15;;;;;;;9.88;100.00;100641.84;5014623;28;20033;-79
2022/09/24 02:19:41;;;;;;;12.85;10.10;;;;;;;9.84;100.00;100633.34;5006652;28;20029;-78
2022/09/24 02:22:09;;;;;;;16.58;11.07;;;;;;;9.86;100.00;100636.69;5029643;28;20044;-81
2022/09/24 02:24:51;;;;;;;21.25;12.27;;;;;;;9.80;100.00;100633.84;5002963;28;20081;-79
2022/09/24 02:27:17;;;;;;;14.43;10.98;;;;;;;9.70;100.00;100629.47;5023425;28;20570;-78
2022/09/24 02:29:43;;;;;;;12.38;10.30;;;;;;;9.66;100.00;100616.63;5029274;28;20470;-80
2022/09/24 02:32:13;;;;;;;11.98;10.73;;;;;;;9.71;100.00;100639.13;5008182;28;20036;-81
2022/09/24 02:34:45;;;;;;;13.80;10.20;;;;;;;9.77;100.00;100642.16;4995820;28;20056;-79
2022/09/24 02:37:13;;;;;;;16.80;11.45;;;;;;;9.76;100.00;100635.97;5029724;28;20029;-79
2022/09/24 02:39:39;;;;;;;15.48;10.60;;;;;;;9.77;100.00;100636.84;5027392;28;20022;-80
2022/09/24 02:42:08;;;;;;;16.92;12.23;;;;;;;9.73;100.00;100637.13;5029371;28;20025;-81
2022/09/24 02:44:35;;;;;;;17.10;12.80;;;;;;;9.83;100.00;100636.16;4998931;28;20494;-78
2022/09/24 02:47:01;;;;;;;13.43;11.02;;;;;;;9.89;100.00;100641.72;5012304;28;20037;-80
2022/09/24 02:49:26;;;;;;;17.63;11.80;;;;;;;9.89;100.00;100635.53;5021298;28;20024;-79
2022/09/24 02:51:51;;;;;;;20.20;13.57;;;;;;;9.88;100.00;100634.72;5023643;28;20041;-78
2022/09/24 02:54:17;;;;;;;19.67;13.43;;;;;;;9.87;100.00;100637.53;5037996;28;20040;-79
2022/09/24 02:56:42;;;;;;;18.87;12.80;;;;;;;9.81;100.00;100627.50;5014505;28;20044;-80
2022/09/24 02:59:07;;;;;;;17.17;12.77;;;;;;;9.87;100.00;100640.19;5024540;28;20116;-80
2022/09/24 03:01:34;;;;;;;16.80;12.63;;;;;;;9.86;100.00;100633.22;5029629;28;20061;-81
2022/09/24 03:04:00;;;;;;;16.65;12.32;;;;;;;9.84;100.00;100640.53;5026230;28;20355;-80
2022/09/24 03:06:25;;;;;;;18.60;12.15;;;;;;;9.84;100.00;100645.84;5006467;28;20040;-81
2022/09/24 03:08:52;;;;;;;17.03;12.80;;;;;;;9.82;100.00;100639.84;5026779;28;20020;-80
2022/09/24 03:11:18;;;;;;;17.20;13.27;;;;;;;9.78;100.00;100639.31;5020207;28;20605;-81
2022/09/24 03:13:44;;;;;;;18.60;13.55;;;;;;;9.77;100.00;100636.84;5028837;28;20063;-79
2022/09/24 03:16:09;;;;;;;19.70;15.40;;;;;;;9.77;100.00;100642.16;5026862;28;20068;-79
2022/09/24 03:18:35;;;;;;;17.17;14.57;;;;;;;9.72;100.00;100631.97;5030341;28;20032;-80
2022/09/24 03:21:04;;;;;;;19.03;14.37;;;;;;;9.73;100.00;100641.63;5020262;28;20484;-80
2022/09/24 03:23:30;;;;;;;23.67;16.10;;;;;;;9.67;100.00;100629.78;5010096;28;20061;-80
2022/09/24 03:25:56;;;;;;;23.30;15.65;;;;;;;9.72;100.00;100632.81;5005673;28;20576;-80
2022/09/24 03:28:21;;;;;;;21.60;15.27;;;;;;;9.64;100.00;100624.75;5000835;28;20075;-79
2022/09/24 03:30:59;;;;;;;24.33;16.03;;;;;;;9.61;100.00;100613.59;4994905;28;20063;-80
2022/09/24 03:33:35;;;;;;;20.63;14.68;;;;;;;9.65;100.00;100620.28;5024632;28;20029;-79
2022/09/24 03:36:06;;;;;;;20.25;14.65;;;;;;;9.63;100.00;100622.28;5022488;28;20047;-80
2022/09/24 03:38:32;;;;;;;20.08;14.35;;;;;;;9.55;100.00;100607.06;4994554;28;20087;-80
2022/09/24 03:40:59;;;;;;;18.65;14.73;;;;;;;9.61;100.00;100617.09;4997075;28;20021;-80
2022/09/24 03:43:24;;;;;;;18.70;14.50;;;;;;;9.57;100.00;100609.56;5022106;28;20099;-80
2022/09/24 03:45:50;;;;;;;17.10;14.27;;;;;;;9.59;100.00;100610.25;5012079;28;20056;-80
2022/09/24 03:48:17;;;;;;;17.20;13.07;;;;;;;9.55;100.00;100603.56;5033595;28;20558;-79
2022/09/24 03:50:42;;;;;;;;;;;;;;;9.57;100.00;100606.91;5010295;28;20036;-82
2022/09/24 03:53:08;;;;;;;;;;;;;;;9.57;100.00;100607.72;5018425;28;19916;-80
2022/09/24 03:55:34;;;;;;;17.47;13.13;;;;;;;9.55;100.00;100604.38;5021331;28;19913;-79
2022/09/24 03:57:59;;;;;;;18.73;13.15;;;;;;;9.53;100.00;100606.41;5025853;28;20104;-80
2022/09/24 04:00:26;;;;;;;17.83;14.13;;;;;;;9.51;100.00;100608.38;5037944;28;20037;-81
2022/09/24 04:02:51;;;;;;;21.67;14.80;;;;;;;9.46;100.00;100603.53;5015833;28;20028;-79
2022/09/24 04:05:17;;;;;;;18.13;14.40;;;;;;;9.43;100.00;100598.50;5011657;28;20028;-80
2022/09/24 04:07:43;;;;;;;24.93;14.37;;;;;;;9.41;100.00;100594.31;5026625;28;20136;-79
2022/09/24 04:10:08;;;;;;;19.85;14.43;;;;;;;9.37;100.00;100596.50;5019998;28;20457;-80
2022/09/24 04:12:34;;;;;;;20.75;15.38;;;;;;;9.43;100.00;100601.16;5009171;28;20041;-80
2022/09/24 04:15:01;;;;;;;21.57;15.83;;;;;;;9.43;100.00;100595.00;5015943;28;20404;-82
2022/09/24 04:17:30;;;;;;;19.13;14.45;;;;;;;9.42;100.00;100596.84;5024453;28;20337;-80
2022/09/24 04:19:59;;;;;;;20.92;14.77;;;;;;;9.42;100.00;100606.69;5000121;28;20029;-81
2022/09/24 04:22:26;;;;;;;19.30;15.10;;;;;;;9.48;100.00;100609.53;5007629;28;20025;-81
2022/09/24 04:24:52;;;;;;;18.90;14.63;;;;;;;9.44;100.00;100602.03;5023589;28;20036;-79
2022/09/24 04:27:19;;;;;;;24.98;17.70;;;;;;;9.49;100.00;100610.38;5013429;28;20021;-81
2022/09/24 04:29:44;;;;;;;24.67;18.10;;;;;;;9.47;100.00;100604.38;5024920;28;20041;-81
2022/09/24 04:32:10;;;;;;;30.33;21.47;;;;;;;9.46;100.00;100611.53;5014593;28;20047;-81
2022/09/24 04:34:35;;;;;;;35.30;21.03;;;;;;;9.44;100.00;100607.34;5025747;28;20037;-81
2022/09/24 04:37:00;;;;;;;34.10;21.93;;;;;;;9.42;100.00;100604.84;5019810;28;20128;-79
2022/09/24 04:39:26;;;;;;;26.47;20.77;;;;;;;9.38;100.00;100592.81;5023859;28;20529;-80
2022/09/24 04:41:52;;;;;;;28.30;19.67;;;;;;;9.37;100.00;100595.66;5021281;28;20379;-80
2022/09/24 04:44:18;;;;;;;24.20;18.05;;;;;;;9.41;100.00;100594.31;4996330;28;20554;-81
2022/09/24 04:46:43;;;;;;;26.50;19.43;;;;;;;9.38;100.00;100590.16;4998427;28;20132;-81
2022/09/24 04:49:09;;;;;;;29.00;19.27;;;;;;;9.35;100.00;100581.66;5024393;28;20040;-81
2022/09/24 04:51:35;;;;;;;24.40;18.10;;;;;;;9.35;100.00;100592.31;5037370;28;20033;-81
2022/09/24 04:54:03;;;;;;;36.90;23.92;;;;;;;9.38;100.00;100602.66;5015032;28;20591;-81
2022/09/24 04:56:29;;;;;;;35.90;24.27;;;;;;;9.36;100.00;100597.47;4990094;28;20514;-79
2022/09/24 04:58:55;;;;;;;38.92;25.67;;;;;;;9.35;100.00;100594.97;5032908;28;20033;-81
2022/09/24 05:01:20;;;;;;;34.28;23.83;;;;;;;9.35;100.00;100595.81;5022719;28;20509;-79
2022/09/24 05:03:46;;;;;;;30.60;20.10;;;;;;;9.32;100.00;100598.78;5009927;28;20021;-82
2022/09/24 05:06:12;;;;;;;30.37;21.60;;;;;;;9.36;100.00;100608.13;5018565;28;20082;-82
2022/09/24 05:08:37;;;;;;;34.15;21.30;;;;;;;9.33;100.00;100594.28;4993025;28;20040;-82
2022/09/24 05:11:03;;;;;;;30.90;20.87;;;;;;;9.32;100.00;100588.13;5019532;28;20036;-80
2022/09/24 05:13:28;;;;;;;28.80;21.00;;;;;;;9.33;100.00;100599.63;5021834;28;20025;-79
2022/09/24 05:15:54;;;;;;;30.03;21.47;;;;;;;9.33;100.00;100592.47;4998562;28;20273;-80
2022/09/24 05:18:19;;;;;;;32.83;21.93;;;;;;;9.37;100.00;100604.47;5011958;28;20345;-80
2022/09/24 05:20:44;;;;;;;49.57;29.07;;;;;;;9.37;100.00;100604.47;5022494;28;20429;-80
2022/09/24 05:23:10;;;;;;;36.63;26.20;;;;;;;9.35;100.00;100600.31;5014471;28;20481;-80
2022/09/24 05:27:07;;;;;;;35.93;23.00;;;;;;;9.42;100.00;100610.16;5028952;28;20439;-79
2022/09/24 05:28:20;;;;;;;32.65;22.63;;;;;;;9.47;100.00;100604.38;5009144;28;20136;-80
2022/09/24 05:30:46;;;;;;;35.70;24.80;;;;;;;9.51;100.00;100614.53;5049855;28;20158;-80
2022/09/24 05:33:12;;;;;;;37.33;23.13;;;;;;;9.48;100.00;100604.22;5025158;28;20032;-80
2022/09/24 05:35:37;;;;;;;31.15;23.00;;;;;;;9.57;100.00;100614.91;4995769;28;20091;-79
2022/09/24 05:38:03;;;;;;;42.60;27.47;;;;;;;9.59;100.00;100610.25;5043390;28;20041;-80
2022/09/24 05:40:46;;;;;;;36.13;24.30;;;;;;;9.64;100.00;100613.25;5026099;28;20101;-81
2022/09/24 05:43:12;;;;;;;40.58;25.48;;;;;;;9.71;100.00;100609.78;5006927;28;20041;-79
2022/09/24 05:45:37;;;;;;;35.97;24.73;;;;;;;9.73;100.00;100607.81;5024392;28;20029;-80
2022/09/24 05:48:03;;;;;;;35.13;23.23;;;;;;;9.82;100.00;100615.84;5018062;28;20068;-80
2022/09/24 05:50:28;;;;;;;37.13;25.67;;;;;;;9.80;100.00;100609.84;5022112;28;20180;-79
2022/09/24 05:52:53;;;;;;;35.70;25.67;;;;;;;9.88;100.00;100604.53;5026304;28;20024;-82
2022/09/24 05:55:19;;;;;;;35.80;24.73;;;;;;;10.02;100.00;100627.06;5022949;28;20033;-80
2022/09/24 05:57:44;;;;;;;38.90;25.47;;;;;;;10.08;100.00;100629.09;5031131;28;20025;-82
2022/09/24 06:00:10;;;;;;;35.27;24.93;;;;;;;10.19;100.00;100627.97;5023826;28;20343;-82
2022/09/24 06:02:38;;;;;;;37.67;25.10;;;;;;;10.34;100.00;100635.19;5011190;28;20083;-82
2022/09/24 06:05:04;;;;;;;33.43;24.07;;;;;;;10.38;100.00;100627.72;5028571;28;20025;-79
2022/09/24 06:07:29;;;;;;;39.83;25.42;;;;;;;10.49;100.00;100623.91;5023282;28;20057;-81
2022/09/24 06:09:58;;;;;;;40.67;25.27;;;;;;;10.65;100.00;100607.03;5025503;28;20044;-81
2022/09/24 06:12:23;;;;;;;35.35;24.77;;;;;;;10.88;100.00;100621.41;4997107;28;20041;-81
2022/09/24 06:14:48;;;;;;;39.45;25.92;;;;;;;10.82;100.00;100603.38;5025508;28;20037;-82
2022/09/24 06:17:14;;;;;;;33.27;23.80;;;;;;;11.04;100.00;100614.38;5040542;28;20025;-80
2022/09/24 06:19:39;;;;;;;37.23;26.47;;;;;;;11.14;100.00;100604.34;5012692;28;20041;-79
2022/09/24 06:22:04;;;;;;;38.27;25.47;;;;;;;11.11;100.00;100591.34;5017333;28;20028;-80
2022/09/24 06:24:30;;;;;;;44.70;24.70;;;;;;;11.12;100.00;100576.97;5024625;28;20034;-82
2022/09/24 06:26:57;;;;;;;38.40;24.90;;;;;;;11.22;100.00;100571.44;5026669;28;20037;-79
2022/09/24 06:29:22;;;;;;;33.55;24.42;;;;;;;11.29;100.00;100554.56;5019133;28;20087;-81
2022/09/24 06:31:47;;;;;;;35.33;25.37;;;;;;;11.34;100.00;100549.53;5006378;28;20037;-81
2022/09/24 06:34:14;;;;;;;35.70;24.50;;;;;;;11.26;100.00;100530.84;5040608;28;20044;-80
2022/09/24 06:36:39;;;;;;;35.40;23.17;;;;;;;11.31;100.00;100528.50;5028576;28;20041;-82
2022/09/24 06:39:06;;;;;;;35.93;24.27;;;;;;;11.30;100.00;100531.31;5017159;28;20037;-81
2022/09/24 06:41:31;;;;;;;34.22;22.80;;;;;;;11.40;100.00;100543.50;5009318;28;20507;-80
2022/09/24 06:43:57;;;;;;;39.07;25.63;;;;;;;11.47;100.00;100535.63;5021887;28;20336;-80
2022/09/24 06:46:24;;;;;;;37.07;24.60;;;;;;;11.40;100.00;100526.59;5025857;28;20052;-81
2022/09/24 06:48:50;;;;;;;40.25;25.55;;;;;;;11.52;100.00;100535.06;5033480;28;20039;-80
2022/09/24 06:51:15;;;;;;;36.50;25.98;;;;;;;11.50;100.00;100540.59;5022182;28;20808;-82
2022/09/24 06:53:40;;;;;;;38.33;26.67;;;;;;;11.44;100.00;100535.13;5009426;28;20635;-81
2022/09/24 06:56:06;;;;;;;42.00;25.80;;;;;;;11.59;100.00;100554.78;5025683;28;20382;-79
2022/09/24 06:58:32;;;;;;;38.40;27.17;;;;;;;11.63;100.00;100542.72;5022838;28;20026;-79
2022/09/24 07:01:03;;;;;;;41.25;26.60;;;;;;;11.70;100.00;100538.34;5042846;28;20094;-81
2022/09/24 07:03:31;;;;;;;42.05;26.35;;;;;;;11.77;100.00;100536.63;5021659;28;20034;-79
2022/09/24 07:06:00;;;;;;;37.83;26.67;;;;;;;11.83;100.00;100535.09;5027064;28;20165;-79
2022/09/24 07:08:25;;;;;;;37.42;24.08;;;;;;;11.79;100.00;100531.09;4997241;28;20034;-81
2022/09/24 07:10:51;;;;;;;36.97;24.73;;;;;;;11.87;100.00;100524.88;5026473;28;20083;-81
2022/09/24 07:13:20;;;;;;;41.38;25.17;;;;;;;12.04;100.00;100537.19;5017693;28;20459;-79
2022/09/24 07:15:46;;;;;;;43.10;26.95;;;;;;;12.15;100.00;100535.94;5043102;28;20059;-80
2022/09/24 07:18:12;;;;;;;39.85;26.05;;;;;;;12.14;100.00;100535.09;5024331;28;20017;-78
2022/09/24 07:20:37;;;;;;;36.80;24.08;;;;;;;12.19;100.00;100543.41;5026925;28;20103;-81
2022/09/24 07:23:08;;;;;;;47.72;28.67;;;;;;;12.43;100.00;100565.66;5029482;28;20484;-80
2022/09/24 07:25:35;;;;;;;39.42;25.15;;;;;;;12.50;100.00;100550.53;5039745;28;20032;-80
2022/09/24 07:28:02;;;;;;;38.80;24.80;;;;;;;12.54;100.00;100535.78;5008963;28;20037;-81
2022/09/24 07:30:27;;;;;;;36.83;25.17;;;;;;;12.70;100.00;100528.66;4995526;28;20143;-80
2022/09/24 07:32:54;;;;;;;40.60;25.50;;;;;;;12.85;100.00;100513.41;5025962;28;20033;-82
2022/09/24 07:35:19;;;;;;;40.47;26.85;;;;;;;12.86;100.00;100486.44;5039534;28;20124;-79
2022/09/24 07:37:45;;;;;;;43.20;27.03;;;;;;;12.96;100.00;100486.16;5028002;28;20121;-82
2022/09/24 07:40:10;;;;;;;32.80;24.00;;;;;;;13.32;100.00;100487.28;5013260;28;20037;-81
2022/09/24 07:42:37;;;;;;;37.37;24.97;;;;;;;13.44;100.00;100488.50;5027645;28;20490;-79
2022/09/24 07:45:03;;;;;;;38.42;25.05;;;;;;;13.49;100.00;100465.44;5043754;28;20028;-81
2022/09/24 07:47:28;;;;;;;40.30;26.17;;;;;;;13.36;100.00;100422.38;5023023;28;20674;-80
2022/09/24 07:49:53;;;;;;;36.87;23.73;;;;;;;14.03;100.00;100449.91;5028968;28;20033;-81
2022/09/24 07:52:19;;;;;;;38.17;22.20;;;;;;;14.72;100.00;100433.94;5019958;28;20061;-81
2022/09/24 07:54:44;;;;;;;34.53;21.80;;;;;;;15.30;100.00;100373.63;5014027;28;20048;-79
2022/09/24 07:57:12;;;;;;;32.43;23.93;;;;;;;15.66;100.00;100249.50;5040828;28;20028;-80
2022/09/24 07:59:38;;;;;;;30.42;20.77;;;;;;;15.51;100.00;100169.00;5043549;28;20136;-82
2022/09/24 08:02:12;;;;;;;33.40;22.17;;;;;;;15.98;100.00;100125.88;5019751;28;20039;-81
2022/09/24 08:04:38;;;;;;;26.02;19.67;;;;;;;15.81;100.00;100109.38;5041413;28;20498;-81
2022/09/24 08:07:03;;;;;;;33.10;20.87;;;;;;;15.78;100.00;100016.44;5025078;28;20029;-81
2022/09/24 08:09:28;;;;;;;34.53;21.33;;;;;;;15.52;100.00;100003.88;5013547;28;20071;-79
2022/09/24 08:11:54;;;;;;;32.40;20.33;;;;;;;15.87;100.00;100073.50;5019079;28;20120;-81
2022/09/24 08:14:19;;;;;;;26.93;20.50;;;;;;;15.58;100.00;100007.56;5019357;28;20068;-80
2022/09/24 08:16:45;;;;;;;29.63;20.67;;;;;;;15.83;100.00;100026.56;5028990;28;20090;-81
2022/09/24 08:19:12;;;;;;;31.30;21.57;;;;;;;15.53;100.00;99997.44;5022072;28;20083;-81
2022/09/24 08:21:38;;;;;;;36.22;21.02;;;;;;;15.27;100.00;100140.06;5027900;28;20036;-82
2022/09/24 08:24:03;;;;;;;36.05;22.38;;;;;;;15.42;100.00;100089.56;5022643;28;20437;-80
2022/09/24 08:26:29;;;;;;;33.53;22.57;;;;;;;14.95;100.00;100103.06;5026535;28;20045;-79
2022/09/24 08:28:54;;;;;;;32.50;21.43;;;;;;;15.29;100.00;100203.38;5023990;28;20399;-80
2022/09/24 08:31:20;;;;;;;27.58;19.75;;;;;;;15.70;100.00;100231.94;5010074;28;20053;-81
2022/09/24 08:33:49;;;;;;;27.63;19.87;;;;;;;16.08;100.00;100180.09;5042543;28;20082;-80
2022/09/24 08:36:15;;;;;;;26.13;17.95;;;;;;;16.84;100.00;100103.84;5021690;28;20041;-80
2022/09/24 08:38:41;;;;;;;27.58;17.95;;;;;;;16.79;100.00;99938.44;5006487;28;20600;-79
2022/09/24 08:41:12;;;;;;;26.58;19.27;;;;;;;16.44;100.00;99840.06;5040006;28;20037;-79
2022/09/24 08:44:01;;;;;;;28.80;21.90;;;;;;;15.96;100.00;99996.03;5023968;28;20171;-79
2022/09/24 08:49:24;;;;;;;32.00;22.20;;;;;;;15.55;100.00;100070.72;5020046;28;20033;-80
2022/09/24 08:52:02;;;;;;;32.22;20.88;;;;;;;15.92;100.00;100207.47;5032840;28;20033;-80
2022/09/24 08:54:32;;;;;;;32.72;19.77;;;;;;;16.60;100.00;100169.28;5022364;28;20037;-78
2022/09/24 08:57:01;;;;;;;30.05;22.17;;;;;;;15.63;100.00;99860.59;4992669;28;20079;-80
2022/09/24 08:59:32;;;;;;;34.92;23.15;;;;;;;15.08;100.00;100056.53;5001450;28;20021;-79
2022/09/24 09:02:22;;;;;;;31.98;20.80;;;;;;;15.50;100.00;100231.94;5022824;28;20387;-80
2022/09/24 09:05:13;;;;;;;38.50;23.88;;;;;;;15.62;100.00;100078.75;5024848;28;20103;-80
2022/09/24 09:07:43;;;;;;;36.10;24.67;;;;;;;14.82;100.00;100155.97;5038827;28;20040;-80
2022/09/24 09:10:11;;;;;;;34.83;24.65;;;;;;;15.10;100.00;100220.31;5017104;28;20044;-79
2022/09/24 09:12:46;;;;;;;33.45;23.40;;;;;;;15.45;100.00;100190.53;5026362;28;20033;-78
2022/09/24 09:15:17;;;;;;;33.30;23.13;;;;;;;16.25;100.00;100202.00;5020498;28;20032;-82
2022/09/24 09:17:59;;;;;;;31.83;22.58;;;;;;;16.51;100.00;100151.75;5024461;28;20387;-79
2022/09/24 09:20:32;;;;;;;35.97;25.17;;;;;;;16.30;100.00;99978.63;5036492;28;20496;-79
2022/09/24 09:23:11;;;;;;;30.20;21.92;;;;;;;16.92;100.00;100048.81;5021478;28;20078;-81
2022/09/24 09:25:41;;;;;;;36.72;24.30;;;;;;;16.63;100.00;99913.66;5037638;28;20033;-79
2022/09/24 09:28:16;;;;;;;35.60;23.30;;;;;;;16.27;100.00;99952.09;5035532;28;20094;-78
2022/09/24 09:31:10;;;;;;;34.83;20.85;;;;;;;16.58;100.00;99894.66;5021119;28;20044;-79
2022/09/24 09:33:41;;;;;;;28.33;19.30;;;;;;;16.99;100.00;99878.91;5006690;28;20390;-79
2022/09/24 09:36:15;;;;;;;26.65;18.35;;;;;;;15.81;100.00;99851.00;5020146;28;20036;-80
2022/09/24 09:39:04;;;;;;;24.35;17.83;;;;;;;16.03;100.00;100026.44;5023388;28;20037;-78
2022/09/24 09:41:40;;;;;;;23.45;15.80;;;;;;;16.33;100.00;100166.72;5022200;28;20025;-78
2022/09/24 09:44:14;;;;;;;25.58;17.73;;;;;;;16.53;100.00;99988.81;5026490;28;20505;-78
2022/09/24 09:46:49;;;;;;;23.88;14.65;;;;;;;16.64;100.00;99979.16;5039522;28;20084;-79
2022/09/24 09:49:16;;;;;;;25.55;17.10;;;;;;;16.17;100.00;99881.75;5020028;28;20107;-79
2022/09/24 09:51:45;;;;;;;25.15;16.70;;;;;;;15.70;100.00;100101.91;5012620;28;20029;-79
2022/09/24 09:54:10;;;;;;;21.10;15.32;;;;;;;15.94;100.00;100267.31;5021530;28;20036;-78
2022/09/24 09:56:42;;;;;;;23.70;16.13;;;;;;;15.70;100.00;100167.34;5026226;28;20021;-78
2022/09/24 09:59:20;;;;;;;26.02;14.95;;;;;;;14.73;100.00;100203.72;5020360;28;20025;-79
2022/09/24 10:01:54;;;;;;;25.65;14.68;;;;;;;15.06;100.00;100400.03;5008212;28;20619;-77
2022/09/24 10:04:38;;;;;;;26.40;15.02;;;;;;;15.11;100.00;100418.25;5035297;28;20044;-79
2022/09/24 10:07:10;;;;;;;19.73;15.40;;;;;;;15.22;100.00;100454.47;5035865;28;20064;-80
2022/09/24 10:09:37;;;;;;;24.20;15.32;;;;;;;15.13;100.00;100516.50;5015572;28;20264;-78
2022/09/24 10:12:13;;;;;;;;;;;;;;;15.01;100.00;100581.75;5023470;28;20028;-80
2022/09/24 10:14:39;;;;;;;24.05;15.07;;;;;;;15.11;100.00;100674.50;5000923;28;19944;-80
2022/09/24 10:17:05;;;;;;;21.20;14.97;;;;;;;15.14;100.00;100636.47;5024362;28;20025;-80
2022/09/24 10:19:36;;;;;;;21.17;13.23;;;;;;;14.67;100.00;100656.72;4998345;28;20044;-77
2022/09/24 10:22:20;;;;;;;16.73;13.40;;;;;;;14.79;100.00;100729.59;4994948;28;20047;-80
2022/09/24 10:24:46;;;;;;;15.93;10.35;;;;;;;15.10;100.00;100710.50;5022356;28;20545;-80
2022/09/24 10:27:13;;;;;;;17.55;10.30;;;;;;;14.89;100.00;100697.88;4997017;28;20034;-79
2022/09/24 10:32:28;;;;;;;13.95;10.38;;;;;;;14.97;100.00;100746.13;5018655;28;20044;-80
2022/09/24 10:35:04;;;;;;;13.73;9.70;;;;;;;14.32;100.00;100747.00;5027628;28;20096;-80
2022/09/24 10:37:30;;;;;;;13.30;9.25;;;;;;;14.66;100.00;100804.72;5011150;28;20075;-80
2022/09/24 10:40:12;;;;;;;12.47;9.97;;;;;;;15.04;100.00;100818.78;5024553;28;20021;-80
2022/09/24 10:42:38;;;;;;;14.18;10.18;;;;;;;14.72;100.00;100760.94;5025625;28;20378;-80
2022/09/24 10:45:12;;;;;;;13.93;9.50;;;;;;;14.48;100.00;100756.72;5025811;28;20849;-80
2022/09/24 10:48:00;;;;;;;17.17;10.60;;;;;;;14.22;100.00;100811.75;5027214;28;20036;-80
2022/09/24 10:50:37;;;;;;;15.88;10.50;;;;;;;14.33;100.00;100838.13;5023584;28;20037;-78
2022/09/24 10:53:11;;;;;;;15.85;10.90;;;;;;;14.52;100.00;100862.78;5027228;28;20512;-80
2022/09/24 10:56:02;;;;;;;14.07;9.57;;;;;;;14.78;100.00;100828.22;5020960;28;20060;-79
2022/09/24 10:59:00;;;;;;;16.83;10.65;;;;;;;14.56;100.00;100788.88;5020976;28;20467;-80
2022/09/24 11:01:34;;;;;;;16.42;9.52;;;;;;;14.81;100.00;100802.00;5022719;28;20149;-78
2022/09/24 11:04:28;;;;;;;14.45;9.93;;;;;;;14.76;100.00;100746.94;5009458;28;20115;-79
2022/09/24 11:07:31;;;;;;;14.68;8.30;;;;;;;14.66;100.00;100691.88;5020336;28;20083;-80
2022/09/24 11:10:16;;;;;;;17.35;10.57;;;;;;;13.92;100.00;100598.84;5042835;28;20041;-79
2022/09/24 11:12:47;;;;;;;17.08;11.63;;;;;;;13.81;100.00;100694.06;5034065;28;20033;-79
2022/09/24 11:15:27;;;;;;;16.08;11.45;;;;;;;14.12;100.00;100733.34;5023151;28;20032;-79
2022/09/24 11:18:18;;;;;;;15.25;10.77;;;;;;;14.52;100.00;100742.72;5020333;28;20049;-80
2022/09/24 11:21:19;;;;;;;16.77;12.65;;;;;;;14.30;100.00;100669.31;5039742;28;20116;-79
2022/09/24 11:24:25;;;;;;;19.95;13.63;;;;;;;14.39;100.00;100680.78;5014146;28;20041;-79
2022/09/24 11:26:56;;;;;;;19.77;12.55;;;;;;;14.66;100.00;100698.06;5025236;28;20497;-79
2022/09/24 11:29:40;;;;;;;21.05;13.05;;;;;;;14.48;100.00;100611.66;5023851;28;20041;-79